Time;durP1;ratioP1;P1;durP2;ratioP2;P2;SDS_P1;SDS_P2;PMS_P1;PMS_P2;Temp;Humidity;BMP_temperature;BMP_pressure;BME280_temperature;BME280_humidity;BME280_pressure;Samples;Min_cycle;Max_cycle;Signal;HPM_P1;HPM_P2
2022/08/09 00:00:32;;;;;;;3.30;2.83;;;18.50;47.20;;;18.74;45.27;98597.63;5028599;28;20573;-73
2022/08/09 00:02:59;;;;;;;2.50;2.30;;;18.50;47.90;;;18.86;45.73;98586.56;5031856;28;20456;-72
2022/08/09 00:05:28;;;;;;;4.70;2.83;;;18.50;48.20;;;19.13;44.92;98603.03;5047558;28;20458;-72
2022/08/09 00:07:55;;;;;;;3.03;2.73;;;18.80;48.20;;;19.16;44.27;98605.25;5029402;28;20490;-72
2022/08/09 00:10:22;;;;;;;3.03;2.70;;;18.90;47.80;;;19.07;44.54;98599.41;5030824;28;21132;-72
2022/08/09 00:12:50;;;;;;;3.33;3.03;;;18.90;47.70;;;19.04;44.75;98599.13;5024575;28;20570;-73
2022/08/09 00:15:17;;;;;;;3.20;2.90;;;18.90;47.80;;;18.98;44.92;98604.47;5027431;28;20517;-72
2022/08/09 00:17:45;;;;;;;5.00;3.30;;;18.90;47.70;;;18.69;45.93;98604.69;5031528;28;20439;-70
2022/08/09 00:20:12;;;;;;;4.07;2.93;;;18.70;48.00;;;18.86;45.77;98595.56;5049851;28;20449;-72
2022/08/09 00:22:41;;;;;;;3.70;3.10;;;18.60;48.40;;;18.87;46.08;98599.16;5036007;28;20457;-72
2022/08/09 00:25:09;;;;;;;3.87;3.40;;;18.60;48.50;;;18.53;46.28;98600.09;5028152;28;20462;-72
2022/08/09 00:27:36;;;;;;;4.23;2.87;;;18.40;48.50;;;18.36;47.14;98602.91;5041916;28;20467;-73
2022/08/09 00:30:05;;;;;;;3.50;3.20;;;18.20;48.90;;;18.27;47.00;98597.84;5035110;28;20950;-72
2022/08/09 00:32:32;;;;;;;2.90;2.47;;;18.10;49.00;;;18.10;47.27;98608.00;5026037;28;20467;-72
2022/08/09 00:34:59;;;;;;;3.10;2.90;;;17.90;48.90;;;17.95;47.71;98605.81;5027313;28;20886;-72
2022/08/09 00:37:27;;;;;;;3.50;3.20;;;17.80;49.30;;;17.88;48.21;98605.97;5024217;28;20485;-71
2022/08/09 00:39:55;;;;;;;3.23;2.80;;;17.70;49.50;;;17.70;48.79;98601.59;5023026;28;20466;-70
2022/08/09 00:42:22;;;;;;;3.43;3.13;;;17.60;49.70;;;17.69;48.25;98610.88;5047897;28;20512;-73
2022/08/09 00:44:50;;;;;;;4.03;3.20;;;17.40;49.60;;;17.64;48.97;98602.56;5026083;28;20541;-71
2022/08/09 00:47:17;;;;;;;3.63;2.90;;;17.50;50.10;;;17.64;48.23;98610.78;5031280;28;21029;-71
2022/08/09 00:49:44;;;;;;;3.20;2.90;;;17.40;49.60;;;17.58;48.39;98611.78;5043764;28;20458;-71
2022/08/09 00:52:12;;;;;;;3.70;2.97;;;17.40;49.70;;;17.54;48.52;98612.28;5037167;28;20454;-73
2022/08/09 00:54:39;;;;;;;2.90;2.70;;;17.30;49.90;;;17.48;49.22;98615.97;5021759;28;20466;-72
2022/08/09 00:57:07;;;;;;;3.10;2.90;;;17.30;50.10;;;17.38;49.38;98615.81;5028511;28;20461;-72
2022/08/09 00:59:35;;;;;;;3.00;2.80;;;17.30;50.20;;;17.31;49.48;98615.13;5022875;28;20458;-71
2022/08/09 01:02:02;;;;;;;2.73;2.53;;;17.10;50.30;;;17.26;49.52;98615.84;5028627;28;20896;-72
2022/08/09 01:04:38;;;;;;;3.87;3.20;;;17.10;50.50;;;17.25;49.42;98617.75;5026736;28;20946;-71
2022/08/09 01:07:18;;;;;;;3.70;3.03;;;17.00;50.50;;;17.21;49.77;98619.34;5028181;28;20557;-71
2022/08/09 01:09:56;;;;;;;2.97;2.67;;;17.00;50.70;;;17.02;50.10;98615.13;5023285;28;20458;-72
2022/08/09 01:12:33;;;;;;;3.30;3.10;;;16.80;50.80;;;16.85;50.83;98615.84;5037811;28;20459;-71
2022/08/09 01:15:05;;;;;;;3.90;3.40;;;16.70;50.80;;;16.66;50.46;98569.66;5025285;28;20543;-72
2022/08/09 01:17:38;;;;;;;3.20;2.90;;;16.70;50.90;;;16.75;50.71;98613.75;5025063;28;21126;-71
2022/08/09 01:20:10;;;;;;;3.00;2.63;;;16.60;51.10;;;16.83;50.94;98618.00;5024805;28;21120;-71
2022/08/09 01:23:08;;;;;;;4.60;2.90;;;16.60;51.40;;;16.92;50.30;98615.72;5040467;28;20513;-71
2022/08/09 01:25:55;;;;;;;3.57;3.27;;;16.70;51.20;;;16.95;50.85;98627.00;5031159;28;20462;-72
2022/08/09 01:28:25;;;;;;;5.33;3.37;;;16.70;51.10;;;16.90;50.55;98615.94;5020603;28;20516;-73
2022/08/09 01:30:55;;;;;;;3.60;2.70;;;16.70;51.10;;;16.88;50.79;98620.00;5018917;28;20506;-72
2022/08/09 01:33:27;;;;;;;4.03;3.30;;;16.70;51.20;;;16.49;50.23;98568.75;5017359;28;20516;-73
2022/08/09 01:36:05;;;;;;;3.13;2.83;;;16.70;51.20;;;16.82;50.97;98619.09;5017131;28;20914;-73
2022/08/09 01:38:36;;;;;;;3.60;3.10;;;16.70;51.60;;;16.82;50.59;98619.09;5016788;28;20513;-73
2022/08/09 01:41:11;;;;;;;2.87;2.67;;;16.70;51.20;;;16.89;50.45;98621.66;5021488;28;20556;-72
2022/08/09 01:43:44;;;;;;;4.20;2.87;;;16.70;51.20;;;16.78;50.98;98620.63;5038461;28;20461;-73
2022/08/09 01:46:13;;;;;;;4.07;3.30;;;16.60;51.40;;;16.66;51.49;98618.75;5023106;28;20537;-71
2022/08/09 01:48:42;;;;;;;4.60;2.50;;;16.50;51.90;;;16.71;51.20;98621.59;5022579;28;20466;-73
2022/08/09 01:51:10;;;;;;;3.17;2.87;;;16.50;51.70;;;16.70;51.64;98622.66;5023722;28;20463;-72
2022/08/09 01:53:39;;;;;;;3.03;2.83;;;16.50;51.80;;;16.71;50.87;98618.84;5035858;28;20486;-73
2022/08/09 01:56:09;;;;;;;3.50;3.17;;;16.60;51.60;;;16.61;51.31;98615.94;5039744;28;20462;-73
2022/08/09 01:58:39;;;;;;;5.60;2.67;;;16.50;51.90;;;16.58;51.19;98616.41;5021744;28;20573;-73
2022/08/09 02:01:07;;;;;;;2.97;2.77;;;16.50;51.70;;;16.65;51.93;98617.09;5023076;28;20477;-73
2022/08/09 02:03:36;;;;;;;2.80;2.60;;;16.50;52.10;;;16.62;51.66;98628.50;5030396;28;20473;-73
2022/08/09 02:06:07;;;;;;;3.33;3.07;;;16.50;52.00;;;16.49;51.49;98617.84;5028160;28;20458;-72
2022/08/09 02:08:38;;;;;;;5.37;3.00;;;16.50;52.00;;;16.47;51.54;98628.19;5032803;28;20476;-72
2022/08/09 02:11:17;;;;;;;3.43;3.13;;;16.40;51.90;;;16.30;52.05;98626.16;5020874;28;20866;-74
2022/08/09 02:13:47;;;;;;;2.77;2.47;;;16.20;52.10;;;16.41;52.61;98633.50;5040650;28;21078;-75
2022/08/09 02:16:15;;;;;;;3.13;2.93;;;16.20;52.40;;;16.36;52.03;98630.66;5026294;28;20454;-74
2022/08/09 02:18:44;;;;;;;3.00;2.70;;;16.30;52.20;;;16.43;52.32;98630.53;5035004;28;20446;-75
2022/08/09 02:21:16;;;;;;;2.70;2.50;;;16.30;52.40;;;16.42;51.85;98632.44;5044200;28;20844;-73
2022/08/09 02:23:50;;;;;;;2.80;2.60;;;16.30;52.10;;;16.48;51.83;98632.56;5026565;28;20469;-73
2022/08/09 02:26:19;;;;;;;2.97;2.77;;;16.40;52.30;;;16.40;52.19;98637.28;5024247;28;20450;-73
2022/08/09 02:28:52;;;;;;;2.80;2.60;;;16.30;52.30;;;16.39;52.06;98635.63;5024115;28;20466;-71
2022/08/09 02:31:25;;;;;;;3.00;2.70;;;16.30;52.30;;;16.39;52.26;98634.81;5023803;28;20494;-73
2022/08/09 02:33:55;;;;;;;2.93;2.53;;;16.30;52.40;;;16.33;52.54;98630.31;5042108;28;20556;-73
2022/08/09 02:36:30;;;;;;;4.27;2.80;;;16.40;52.60;;;16.33;52.66;98636.59;5020760;28;20466;-73
2022/08/09 02:39:03;;;;;;;3.60;2.97;;;16.30;52.60;;;16.34;52.21;98643.72;5033317;28;20477;-73
2022/08/09 02:41:37;;;;;;;2.90;2.70;;;16.30;52.50;;;16.43;52.36;98642.25;5028538;28;20481;-73
2022/08/09 02:44:15;;;;;;;3.50;3.30;;;16.40;52.60;;;16.40;52.19;98634.56;5021779;28;20446;-72
2022/08/09 02:46:45;;;;;;;3.80;3.47;;;16.40;52.50;;;16.48;52.06;98632.56;5028924;28;20464;-73
2022/08/09 02:49:16;;;;;;;2.97;2.63;;;16.50;52.50;;;16.50;52.24;98631.22;5030240;28;20800;-73
2022/08/09 02:51:50;;;;;;;4.03;3.20;;;16.50;52.50;;;16.44;52.43;98634.94;5049015;28;20462;-73
2022/08/09 02:54:19;;;;;;;3.10;2.80;;;16.50;52.60;;;16.47;52.33;98636.34;5043558;28;20549;-72
2022/08/09 02:56:49;;;;;;;2.70;2.47;;;16.50;52.60;;;16.39;52.53;98630.19;5023441;28;20458;-73
2022/08/09 02:59:20;;;;;;;3.00;2.80;;;16.50;52.70;;;16.42;52.42;98634.34;5023375;28;20478;-71
2022/08/09 03:01:49;;;;;;;2.77;2.57;;;16.50;52.60;;;16.35;52.71;98629.00;5035479;28;20885;-72
2022/08/09 03:04:18;;;;;;;3.47;3.17;;;16.40;52.50;;;16.43;52.75;98627.81;5025994;28;20493;-71
2022/08/09 03:06:45;;;;;;;5.23;3.17;;;16.40;52.90;;;16.47;52.31;98628.19;5032828;28;20474;-73
2022/08/09 03:09:14;;;;;;;4.93;3.40;;;16.40;52.80;;;16.53;52.42;98632.66;5031224;28;20479;-74
2022/08/09 03:11:43;;;;;;;2.93;2.73;;;16.50;53.10;;;16.45;52.27;98624.81;5027885;28;20454;-73
2022/08/09 03:14:12;;;;;;;3.17;2.97;;;16.50;52.90;;;16.43;52.53;98619.63;5022836;28;20516;-71
2022/08/09 03:16:42;;;;;;;3.93;3.17;;;16.40;52.80;;;16.57;52.96;98631.09;5026247;28;20470;-73
2022/08/09 03:19:11;;;;;;;9.33;3.37;;;16.40;53.30;;;16.37;52.38;98621.41;5032161;28;20468;-72
2022/08/09 03:21:39;;;;;;;2.83;2.63;;;16.40;52.90;;;16.44;52.54;98629.47;5024017;28;20593;-72
2022/08/09 03:24:06;;;;;;;2.60;2.40;;;16.40;53.10;;;16.35;52.93;98634.47;5034939;28;20465;-72
2022/08/09 03:26:34;;;;;;;3.00;2.80;;;16.30;53.00;;;16.29;52.79;98643.56;5022592;28;20450;-73
2022/08/09 03:29:02;;;;;;;3.03;2.83;;;16.30;53.10;;;16.31;52.67;98632.44;5023604;28;20458;-73
2022/08/09 03:31:29;;;;;;;3.47;3.17;;;16.30;53.10;;;16.24;53.18;98640.75;5021047;28;20577;-73
2022/08/09 03:34:01;;;;;;;3.30;3.10;;;16.20;53.20;;;15.94;52.83;98601.66;5021650;28;20466;-72
2022/08/09 03:36:28;;;;;;;5.57;3.17;;;16.20;53.20;;;16.33;52.61;98642.06;5021727;28;20826;-72
2022/08/09 03:38:57;;;;;;;2.77;2.57;;;16.30;53.50;;;16.36;52.73;98647.03;5027734;28;20466;-72
2022/08/09 03:41:24;;;;;;;6.53;3.10;;;16.30;53.20;;;16.31;53.03;98646.91;5032804;28;20461;-72
2022/08/09 03:43:52;;;;;;;3.33;3.03;;;16.20;53.20;;;16.27;53.81;98634.81;5021929;28;20476;-72
2022/08/09 03:46:19;;;;;;;3.60;3.30;;;16.20;53.70;;;16.27;53.08;98643.84;5022867;28;20462;-71
2022/08/09 03:48:49;;;;;;;4.03;2.73;;;16.20;53.60;;;16.37;53.16;98647.84;5032606;28;20469;-73
2022/08/09 03:51:20;;;;;;;4.20;2.97;;;16.20;53.80;;;16.40;52.58;98648.19;5035503;28;20458;-73
2022/08/09 03:53:47;;;;;;;3.23;2.93;;;16.20;53.50;;;16.31;53.59;98654.25;5026747;28;20454;-71
2022/08/09 03:56:15;;;;;;;3.90;3.30;;;16.20;53.70;;;16.25;53.76;98647.84;5020666;28;20464;-73
2022/08/09 03:58:42;;;;;;;3.30;3.00;;;16.20;53.90;;;16.45;53.56;98649.38;5028274;28;20465;-73
2022/08/09 04:01:11;;;;;;;3.67;2.90;;;16.20;54.30;;;16.72;52.89;98655.16;5030871;28;20473;-73
2022/08/09 04:03:39;;;;;;;3.33;2.90;;;16.40;54.30;;;16.87;52.33;98643.72;5058053;28;21322;-70
2022/08/09 04:06:07;;;;;;;3.30;3.00;;;16.50;54.00;;;17.06;51.95;98657.22;5025549;28;20450;-71
2022/08/09 04:08:36;;;;;;;5.80;2.87;;;16.70;53.90;;;16.89;51.65;98655.22;5033903;28;20516;-71
2022/08/09 04:11:04;;;;;;;3.30;2.90;;;16.70;53.50;;;16.80;51.81;98662.16;5028922;28;20508;-72
2022/08/09 04:13:31;;;;;;;4.27;3.63;;;16.60;53.70;;;16.64;52.50;98666.44;5025736;28;20482;-72
2022/08/09 04:15:59;;;;;;;4.80;3.70;;;16.50;53.60;;;16.62;52.76;98661.25;5042916;28;20462;-71
2022/08/09 04:18:26;;;;;;;3.33;3.10;;;16.40;53.70;;;16.30;52.63;98628.88;5029517;28;20965;-72
2022/08/09 04:20:54;;;;;;;4.53;3.27;;;16.40;53.90;;;16.50;53.17;98663.97;5030551;28;20450;-71
2022/08/09 04:23:22;;;;;;;3.80;3.50;;;16.30;54.00;;;16.40;53.11;98674.66;5028411;28;20505;-71
2022/08/09 04:25:50;;;;;;;4.23;3.00;;;16.30;53.90;;;16.47;52.99;98675.34;5033675;28;20497;-71
2022/08/09 04:28:20;;;;;;;3.23;3.00;;;16.30;54.10;;;16.43;53.01;98674.16;5030303;28;20454;-71
2022/08/09 04:30:47;;;;;;;3.43;3.13;;;16.30;54.00;;;16.46;52.91;98678.34;5029669;28;20451;-71
2022/08/09 04:33:16;;;;;;;4.73;2.93;;;16.30;54.00;;;16.98;51.68;98669.31;5024990;28;20459;-72
2022/08/09 04:35:44;;;;;;;4.53;3.43;;;16.80;53.70;;;18.04;48.97;98680.06;5031442;28;20462;-72
2022/08/09 04:38:11;;;;;;;5.07;3.00;;;17.80;53.00;;;19.05;46.61;98671.97;5021848;28;20521;-71
2022/08/09 04:40:50;;;;;;;6.97;3.10;;;18.90;51.90;;;19.73;44.52;98665.28;5045768;28;20966;-72
2022/08/09 04:43:19;;;;;;;3.07;2.87;;;19.80;50.50;;;19.76;44.59;98675.72;5028752;28;21077;-70
2022/08/09 04:45:46;;;;;;;2.80;2.60;;;20.20;49.70;;;20.59;42.69;98677.19;5026723;28;20469;-72
2022/08/09 04:48:14;;;;;;;3.73;3.30;;;20.70;49.20;;;21.05;41.31;98681.28;5043138;28;20462;-72
2022/08/09 04:50:43;;;;;;;2.80;2.60;;;21.20;48.60;;;21.15;41.56;98681.31;5032945;28;20987;-72
2022/08/09 04:53:11;;;;;;;4.07;2.93;;;21.60;48.30;;;21.77;40.34;98689.78;5021477;28;20462;-71
2022/08/09 04:55:38;;;;;;;3.20;3.00;;;21.90;47.90;;;21.04;41.08;98693.38;5027481;28;20534;-71
2022/08/09 04:58:07;;;;;;;3.50;2.60;;;21.70;47.40;;;20.80;41.69;98680.03;5027745;28;20467;-72
2022/08/09 05:00:35;;;;;;;2.87;2.67;;;21.80;47.30;;;21.78;39.87;98696.91;5032519;28;20447;-73
2022/08/09 05:03:03;;;;;;;2.70;2.50;;;22.30;47.10;;;21.67;39.78;98699.91;5030536;28;20470;-73
2022/08/09 05:05:31;;;;;;;4.37;2.60;;;22.40;46.70;;;21.95;39.41;98693.09;5030470;28;20463;-73
2022/08/09 05:07:58;;;;;;;4.73;2.43;;;22.70;46.60;;;22.39;38.48;98701.88;5035300;28;20453;-71
2022/08/09 05:10:26;;;;;;;2.53;2.33;;;22.90;46.30;;;22.87;37.81;98710.63;5031139;28;20452;-72
2022/08/09 05:12:53;;;;;;;2.53;2.33;;;23.10;46.30;;;22.49;38.21;98710.97;5030176;28;20467;-71
2022/08/09 05:15:20;;;;;;;3.43;2.70;;;23.30;46.00;;;22.93;37.42;98665.41;5045291;28;20509;-72
2022/08/09 05:17:49;;;;;;;3.73;2.60;;;23.50;46.10;;;23.64;36.52;98714.16;5031444;28;20476;-72
2022/08/09 05:20:16;;;;;;;2.70;2.50;;;23.90;45.60;;;23.84;36.43;98715.16;5028928;28;20976;-74
2022/08/09 05:22:43;;;;;;;2.70;2.50;;;24.10;45.60;;;24.38;34.98;98712.56;5028448;28;20479;-73
2022/08/09 05:25:13;;;;;;;3.60;2.87;;;24.70;45.10;;;24.39;34.99;98715.00;5028267;28;20944;-72
2022/08/09 05:27:40;;;;;;;3.70;2.53;;;24.90;44.90;;;23.18;36.62;98713.28;5027384;28;20942;-73
2022/08/09 05:30:09;;;;;;;3.10;2.90;;;24.00;44.90;;;23.39;36.79;98718.72;5026708;28;20465;-72
2022/08/09 05:32:36;;;;;;;3.87;2.87;;;24.10;45.20;;;23.07;37.32;98725.44;5045225;28;20463;-72
2022/08/09 05:35:07;;;;;;;3.33;2.70;;;23.90;45.20;;;22.60;37.70;98722.78;5027411;28;20522;-73
2022/08/09 05:37:34;;;;;;;3.13;2.90;;;23.60;45.30;;;22.80;37.91;98729.34;5029047;28;21121;-73
2022/08/09 05:40:05;;;;;;;3.60;2.50;;;23.60;45.50;;;22.90;37.57;98732.09;5026401;28;20464;-72
2022/08/09 05:42:44;;;;;;;5.00;2.77;;;23.60;45.30;;;22.24;38.46;98702.69;5028880;28;20556;-76
2022/08/09 05:45:37;;;;;;;3.80;2.60;;;23.40;45.30;;;22.04;38.39;98702.41;5040255;28;20462;-73
2022/08/09 05:48:06;;;;;;;9.40;2.70;;;23.30;45.30;;;22.18;39.05;98732.16;5041872;28;20463;-73
2022/08/09 05:50:35;;;;;;;4.40;2.43;;;23.00;45.70;;;22.52;38.77;98734.38;5044418;28;20503;-70
2022/08/09 05:53:03;;;;;;;3.23;2.47;;;23.10;45.90;;;22.24;38.39;98731.06;5035634;28;20459;-71
2022/08/09 05:55:30;;;;;;;4.50;2.40;;;23.30;45.30;;;22.31;38.75;98734.34;5030291;28;20448;-71
2022/08/09 05:57:57;;;;;;;3.53;2.40;;;23.30;45.50;;;22.13;38.75;98734.91;5033853;28;20463;-71
2022/08/09 06:00:26;;;;;;;6.60;2.70;;;23.20;45.40;;;22.33;39.01;98731.34;5031607;28;21131;-72
2022/08/09 06:02:55;;;;;;;6.03;2.87;;;23.30;45.70;;;22.95;37.84;98733.19;5033384;28;20461;-73
2022/08/09 06:05:22;;;;;;;4.70;2.20;;;23.70;45.40;;;23.66;36.48;98724.91;5028614;28;20492;-72
2022/08/09 06:07:51;;;;;;;3.70;2.50;;;24.40;45.30;;;23.21;37.19;98736.69;5028165;28;20512;-71
2022/08/09 06:10:19;;;;;;;2.73;2.50;;;24.30;44.80;;;22.02;39.84;98736.84;5030855;28;22670;-73
2022/08/09 06:12:46;;;;;;;3.43;2.50;;;23.00;45.60;;;21.43;40.94;98738.88;5024215;28;20459;-72
2022/08/09 06:15:14;;;;;;;2.67;2.20;;;21.80;46.60;;;21.19;41.91;98750.28;5020610;28;20460;-72
2022/08/09 06:17:41;;;;;;;5.13;2.80;;;21.40;47.20;;;20.70;42.40;98748.59;5024009;28;20469;-71
2022/08/09 06:20:10;;;;;;;11.07;2.90;;;20.90;47.30;;;20.35;43.20;98748.91;5024246;28;20940;-72
2022/08/09 06:22:38;;;;;;;3.10;2.13;;;20.50;47.90;;;20.48;42.66;98752.31;5025007;28;20507;-72
2022/08/09 06:25:07;;;;;;;2.37;2.17;;;20.50;48.00;;;20.20;43.84;98762.50;5022933;28;20538;-74
2022/08/09 06:27:35;;;;;;;3.07;2.83;;;20.30;48.20;;;20.19;43.87;98758.13;5022630;28;20495;-72
2022/08/09 06:30:02;;;;;;;3.77;2.80;;;20.20;48.30;;;20.31;42.98;98760.69;5014861;28;20450;-76
2022/08/09 06:32:30;;;;;;;4.87;2.40;;;20.30;48.00;;;20.35;42.94;98765.38;5032755;28;20467;-75
2022/08/09 06:34:57;;;;;;;4.10;2.60;;;20.30;48.00;;;20.58;43.32;98757.88;5023114;28;20462;-74
2022/08/09 06:37:24;;;;;;;4.17;2.60;;;20.40;48.60;;;20.39;43.47;98769.25;5028994;28;20470;-75
2022/08/09 06:39:52;;;;;;;3.20;2.57;;;20.40;48.60;;;20.69;43.71;98768.91;5045378;28;20462;-74
2022/08/09 06:42:21;;;;;;;2.73;2.53;;;20.50;48.90;;;20.90;42.74;98765.25;5046490;28;20533;-73
2022/08/09 06:44:48;;;;;;;3.03;2.83;;;20.80;48.70;;;20.84;41.66;98766.31;5018942;28;20509;-67
2022/08/09 06:47:15;;;;;;;7.90;2.90;;;20.90;47.90;;;20.95;41.80;98773.53;5022672;28;20458;-69
2022/08/09 06:49:42;;;;;;;4.27;2.47;;;20.90;47.90;;;20.89;42.44;98771.00;5021308;28;20488;-68
2022/08/09 06:52:10;;;;;;;2.60;2.40;;;20.90;48.40;;;20.78;42.08;98767.34;5039332;28;20963;-69
2022/08/09 06:54:37;;;;;;;3.17;2.87;;;20.90;47.80;;;20.98;42.60;98760.34;5020749;28;20465;-68
2022/08/09 06:57:05;;;;;;;3.80;2.80;;;20.90;48.20;;;21.19;42.03;98766.78;5023011;28;20458;-68
2022/08/09 06:59:34;;;;;;;2.60;2.40;;;21.10;48.20;;;21.16;41.93;98773.66;5018522;28;20474;-69
2022/08/09 07:02:01;;;;;;;5.20;2.83;;;21.10;48.00;;;21.26;41.26;98769.28;5023029;28;21027;-73
2022/08/09 07:04:29;;;;;;;2.60;2.40;;;21.20;48.00;;;20.91;41.55;98764.16;5037669;28;20524;-71
2022/08/09 07:06:56;;;;;;;2.83;2.30;;;21.00;47.40;;;21.06;41.56;98762.59;5022120;28;20443;-74
2022/08/09 07:09:23;;;;;;;4.00;3.10;;;21.10;47.80;;;21.30;41.41;98768.50;5024889;28;20466;-73
2022/08/09 07:11:50;;;;;;;3.47;1.97;;;21.20;47.70;;;21.40;41.28;98772.38;5024602;28;20951;-71
2022/08/09 07:14:18;;;;;;;2.60;2.37;;;21.30;47.80;;;21.50;41.16;98767.75;5019096;28;20456;-69
2022/08/09 07:16:47;;;;;;;2.93;2.63;;;21.40;47.70;;;21.56;40.62;98765.00;5017494;28;21832;-78
2022/08/09 07:19:14;;;;;;;4.77;2.50;;;21.50;47.50;;;21.62;41.24;98763.94;5024709;28;20455;-71
2022/08/09 07:21:42;;;;;;;2.30;2.10;;;21.50;47.70;;;21.84;40.57;98773.91;5038627;28;20973;-70
2022/08/09 07:24:09;;;;;;;3.03;2.43;;;21.60;47.70;;;22.06;40.46;98769.03;5014525;28;20924;-70
2022/08/09 07:26:36;;;;;;;2.90;2.27;;;21.90;47.80;;;22.03;39.65;98775.06;5034804;28;20515;-72
2022/08/09 07:29:04;;;;;;;2.70;2.50;;;21.90;47.10;;;22.11;39.37;98770.94;5020999;28;20502;-69
2022/08/09 07:31:32;;;;;;;2.57;2.37;;;22.00;47.10;;;22.07;39.86;98776.19;5021402;28;20524;-69
2022/08/09 07:34:01;;;;;;;1.90;1.80;;;22.00;47.10;;;22.17;39.09;98769.03;5027436;28;20948;-70
2022/08/09 07:36:29;;;;;;;3.20;2.30;;;22.10;46.90;;;22.14;38.79;98780.56;5025295;28;20467;-70
2022/08/09 07:38:58;;;;;;;2.50;2.30;;;22.10;46.50;;;22.29;38.25;98772.34;5021997;28;20461;-70
2022/08/09 07:41:25;;;;;;;2.20;1.93;;;22.20;46.20;;;22.06;38.75;98725.00;5026391;28;20475;-70
2022/08/09 07:43:53;;;;;;;3.43;2.40;;;22.30;46.60;;;22.67;37.76;98776.75;5023479;28;20566;-69
2022/08/09 07:46:22;;;;;;;2.10;1.90;;;22.40;46.30;;;22.44;37.53;98779.75;5027783;28;20469;-72
2022/08/09 07:48:49;;;;;;;4.33;2.30;;;22.50;45.60;;;22.40;37.47;98750.31;5024063;28;20999;-70
2022/08/09 07:51:18;;;;;;;4.03;2.20;;;22.40;45.80;;;22.58;36.91;98770.97;5026256;28;20971;-70
2022/08/09 07:53:47;;;;;;;2.40;2.20;;;22.50;45.40;;;22.84;37.12;98781.97;5043193;28;21158;-70
2022/08/09 07:56:14;;;;;;;3.23;1.70;;;22.60;45.70;;;22.86;36.81;98780.59;5023179;28;20564;-70
2022/08/09 07:58:42;;;;;;;4.00;2.00;;;22.70;45.30;;;22.98;36.68;98782.22;5022060;28;20463;-70
2022/08/09 08:01:09;;;;;;;3.80;2.17;;;22.80;45.40;;;22.74;36.19;98749.75;5027797;28;20462;-70
2022/08/09 08:03:37;;;;;;;2.10;2.00;;;22.90;45.00;;;23.13;36.07;98779.44;5029189;28;20492;-70
2022/08/09 08:06:05;;;;;;;2.00;1.90;;;23.00;45.00;;;22.99;35.71;98745.31;5031044;28;20460;-73
2022/08/09 08:08:34;;;;;;;6.57;2.00;;;23.10;45.00;;;23.40;35.26;98782.97;5026445;28;20529;-70
2022/08/09 08:11:02;;;;;;;8.47;2.47;;;23.20;44.70;;;23.48;35.36;98774.09;5015410;28;20462;-71
2022/08/09 08:13:29;;;;;;;4.50;2.20;;;23.30;44.80;;;23.28;35.51;98775.00;5023744;28;20556;-70
2022/08/09 08:15:56;;;;;;;1.80;1.63;;;23.30;44.70;;;23.32;34.23;98776.09;5032391;28;20459;-70
2022/08/09 08:18:24;;;;;;;1.87;1.77;;;23.30;43.70;;;23.25;34.94;98786.53;5019714;28;20903;-70
2022/08/09 08:20:51;;;;;;;2.13;1.93;;;23.20;44.10;;;23.43;34.95;98783.22;5022392;28;20531;-71
2022/08/09 08:23:19;;;;;;;2.10;1.87;;;23.30;44.40;;;23.56;34.80;98775.44;5028853;28;20478;-70
2022/08/09 08:25:49;;;;;;;6.27;1.80;;;23.40;44.50;;;23.85;34.71;98788.53;5030403;28;20524;-71
2022/08/09 08:28:17;;;;;;;2.53;1.97;;;23.60;44.60;;;23.33;34.52;98730.88;5023247;28;20952;-71
2022/08/09 08:30:45;;;;;;;1.70;1.60;;;23.60;43.90;;;23.69;34.22;98782.28;5026922;28;20496;-75
2022/08/09 08:33:14;;;;;;;4.83;1.87;;;23.60;44.00;;;23.68;34.17;98777.88;5021573;28;20462;-79
2022/08/09 08:35:41;;;;;;;2.00;1.80;;;23.60;43.80;;;24.10;33.79;98778.47;5022894;28;20466;-72
2022/08/09 08:38:08;;;;;;;2.17;1.60;;;23.80;44.00;;;24.25;33.46;98770.06;5032627;28;20730;-77
2022/08/09 08:40:36;;;;;;;2.23;2.00;;;24.00;43.80;;;24.21;33.42;98779.22;5033057;28;20471;-70
2022/08/09 08:43:05;;;;;;;2.87;2.20;;;24.10;43.80;;;24.15;32.66;98781.19;5018604;28;20545;-79
2022/08/09 08:45:34;;;;;;;2.67;1.87;;;24.00;43.20;;;23.80;32.87;98788.56;5032076;28;20812;-75
2022/08/09 08:48:03;;;;;;;4.23;2.30;;;23.80;42.60;;;23.92;32.81;98778.00;5043965;28;20876;-70
2022/08/09 08:50:30;;;;;;;3.30;2.00;;;23.80;42.80;;;24.01;32.97;98778.22;5037413;28;20833;-71
2022/08/09 08:52:58;;;;;;;2.63;2.43;;;23.80;43.10;;;23.99;32.44;98785.97;5021809;28;20465;-70
2022/08/09 08:55:25;;;;;;;2.70;1.90;;;23.90;42.80;;;23.90;33.15;98783.81;5027113;28;20444;-71
2022/08/09 08:57:54;;;;;;;2.93;2.27;;;23.80;42.80;;;24.07;33.03;98784.56;5038895;28;20465;-71
2022/08/09 09:00:24;;;;;;;2.40;2.20;;;23.90;43.00;;;24.07;32.55;98779.06;5019629;28;20469;-70
2022/08/09 09:02:52;;;;;;;2.50;2.23;;;24.00;42.80;;;24.07;32.92;98788.13;5018927;28;20465;-69
2022/08/09 09:05:24;;;;;;;2.90;2.53;;;24.00;42.90;;;24.02;32.67;98788.16;5032697;28;20499;-67
2022/08/09 09:07:53;;;;;;;2.53;2.33;;;24.00;42.60;;;24.01;32.34;98786.50;5018958;28;20524;-70
2022/08/09 09:10:23;;;;;;;4.70;2.90;;;23.90;42.30;;;24.21;31.97;98785.56;5022468;28;20466;-68
2022/08/09 09:12:51;;;;;;;2.40;2.20;;;24.10;42.60;;;24.14;32.33;98779.53;5017182;28;20454;-68
2022/08/09 09:15:19;;;;;;;2.93;2.73;;;24.00;42.30;;;24.19;32.16;98785.03;5022535;28;20485;-70
2022/08/09 09:17:47;;;;;;;4.23;2.83;;;24.00;42.30;;;24.25;31.93;98780.28;5023206;28;20458;-77
2022/08/09 09:20:15;;;;;;;4.37;2.67;;;24.10;42.40;;;24.38;31.94;98771.34;5027878;28;20488;-80
2022/08/09 09:22:56;;;;;;;2.80;2.50;;;24.20;42.30;;;24.23;31.70;98779.75;5021025;28;20457;-74
2022/08/09 09:25:36;;;;;;;2.60;2.40;;;24.20;42.00;;;24.31;31.10;98791.00;5025296;28;20485;-73
2022/08/09 09:28:05;;;;;;;2.83;2.63;;;24.30;41.60;;;24.37;31.45;98771.66;5024598;28;20546;-71
2022/08/09 09:30:33;;;;;;;2.67;2.47;;;24.30;41.90;;;24.47;31.88;98774.31;5025195;28;20459;-74
2022/08/09 09:33:09;;;;;;;3.23;2.50;;;24.30;42.20;;;24.78;31.25;98763.00;5023372;28;20559;-71
2022/08/09 09:35:52;;;;;;;3.53;2.67;;;24.50;42.20;;;24.72;31.49;98767.75;5037239;28;20458;-70
2022/08/09 09:38:22;;;;;;;4.13;2.57;;;24.60;42.30;;;24.96;31.73;98766.16;5021451;28;20448;-74
2022/08/09 09:40:50;;;;;;;2.47;2.20;;;24.70;42.80;;;25.01;31.35;98760.56;5022030;28;20467;-70
2022/08/09 09:43:20;;;;;;;2.37;2.27;;;24.80;42.50;;;25.02;31.01;98765.81;5031779;28;20496;-81
2022/08/09 09:45:53;;;;;;;3.13;2.70;;;24.80;42.30;;;24.82;31.48;98766.84;5026709;28;20478;-76
2022/08/09 09:48:22;;;;;;;2.40;2.20;;;24.70;42.20;;;24.96;31.18;98760.63;5043565;28;20481;-75
2022/08/09 09:50:53;;;;;;;3.60;2.50;;;24.80;42.20;;;25.22;31.07;98769.47;5021399;28;21369;-69
2022/08/09 09:53:22;;;;;;;2.70;2.50;;;24.90;42.30;;;25.09;31.05;98754.38;5036891;28;20470;-79
2022/08/09 09:56:02;;;;;;;3.17;2.87;;;25.00;42.10;;;25.00;30.77;98750.63;5034991;28;20532;-70
2022/08/09 09:58:45;;;;;;;2.90;2.70;;;25.00;41.90;;;25.23;30.39;98756.44;5032942;28;20490;-69
2022/08/09 10:01:20;;;;;;;3.07;2.40;;;25.00;41.90;;;24.84;30.52;98736.16;5020511;28;20473;-70
2022/08/09 10:03:51;;;;;;;3.00;2.70;;;25.00;41.60;;;24.97;30.50;98745.69;5033407;28;20473;-69
2022/08/09 10:06:19;;;;;;;3.07;2.87;;;24.80;41.20;;;25.38;30.33;98750.72;5021523;28;20465;-72
2022/08/09 10:08:48;;;;;;;3.03;2.50;;;25.00;41.90;;;25.44;30.45;98755.09;5024908;28;20829;-70
2022/08/09 10:11:21;;;;;;;3.40;2.53;;;25.20;41.60;;;25.50;30.30;98746.75;5023643;28;20462;-71
2022/08/09 10:13:49;;;;;;;5.00;2.67;;;25.30;41.60;;;25.41;30.04;98754.84;5038689;28;20513;-71
2022/08/09 10:16:29;;;;;;;2.87;2.63;;;25.30;41.60;;;25.24;30.27;98749.78;5028308;28;20556;-71
2022/08/09 10:19:01;;;;;;;2.60;2.40;;;25.20;41.40;;;25.34;30.21;98748.88;5015539;28;20499;-69
2022/08/09 10:21:29;;;;;;;3.07;2.60;;;25.20;41.70;;;25.38;30.29;98747.97;5028394;28;20457;-69
2022/08/09 10:24:01;;;;;;;4.33;2.63;;;25.20;41.40;;;25.33;30.35;98745.28;5040739;28;20569;-70
2022/08/09 10:26:30;;;;;;;3.57;2.60;;;25.20;41.40;;;25.55;30.19;98738.38;5017357;28;20460;-71
2022/08/09 10:28:58;;;;;;;3.33;3.03;;;25.30;41.40;;;25.47;29.65;98753.66;5033317;28;20829;-80